createdAt,value
2017-12-31T00:00:06.297Z,10.30
2017-12-31T00:02:33.760Z,7.23
2017-12-31T00:05:01.214Z,6.00
2017-12-31T00:07:28.676Z,7.93
2017-12-31T00:09:56.180Z,5.00
2017-12-31T00:12:23.645Z,5.90
2017-12-31T00:14:51.100Z,10.00
2017-12-31T00:17:18.614Z,6.77
2017-12-31T00:19:46.114Z,5.43
2017-12-31T00:22:13.554Z,6.57
2017-12-31T00:24:41.013Z,11.60
2017-12-31T00:27:08.476Z,7.10
2017-12-31T00:29:35.950Z,7.67
2017-12-31T00:32:03.410Z,8.53
2017-12-31T00:34:30.897Z,7.30
2017-12-31T00:36:58.360Z,7.80
2017-12-31T00:39:25.823Z,5.63
2017-12-31T00:41:53.304Z,7.20
2017-12-31T00:44:21.520Z,3.93
2017-12-31T00:46:48.968Z,6.47
2017-12-31T00:49:16.428Z,8.40
2017-12-31T00:51:43.880Z,5.07
2017-12-31T00:54:11.342Z,9.60
2017-12-31T00:56:38.801Z,5.83
2017-12-31T00:59:06.257Z,6.53
2017-12-31T01:01:33.716Z,4.20
2017-12-31T01:04:01.213Z,4.97
2017-12-31T01:06:30.173Z,7.80
2017-12-31T01:08:57.639Z,6.97
2017-12-31T01:11:25.287Z,7.13
2017-12-31T01:13:52.764Z,8.10
2017-12-31T01:16:20.230Z,5.73
2017-12-31T01:18:47.729Z,7.40
2017-12-31T01:21:15.941Z,6.33
2017-12-31T01:23:43.395Z,5.70
2017-12-31T01:26:10.937Z,4.63
2017-12-31T01:28:38.392Z,4.37
2017-12-31T01:31:05.848Z,6.30
2017-12-31T01:33:33.307Z,8.23
2017-12-31T01:36:01.539Z,4.90
2017-12-31T01:38:28.994Z,4.87
2017-12-31T01:40:56.460Z,5.57
2017-12-31T01:43:23.919Z,3.47
2017-12-31T01:45:51.381Z,4.77
2017-12-31T01:48:18.835Z,4.67
2017-12-31T01:50:46.313Z,6.20
2017-12-31T01:53:13.823Z,5.77
2017-12-31T01:55:41.281Z,4.13
2017-12-31T01:58:08.827Z,7.03
2017-12-31T02:00:36.306Z,4.77
2017-12-31T02:03:03.773Z,6.00
2017-12-31T02:05:31.228Z,5.33
2017-12-31T02:07:58.706Z,4.10
2017-12-31T02:10:26.925Z,5.80
2017-12-31T02:12:54.381Z,5.60
2017-12-31T02:15:21.906Z,9.33
2017-12-31T02:17:49.558Z,4.07
2017-12-31T02:20:17.327Z,5.73
2017-12-31T02:22:44.790Z,4.37
2017-12-31T02:25:12.237Z,6.23
2017-12-31T02:27:39.716Z,4.60
2017-12-31T02:30:07.178Z,4.63
2017-12-31T02:32:34.658Z,4.23
2017-12-31T02:35:02.101Z,7.00
2017-12-31T02:37:29.557Z,5.57
2017-12-31T02:39:57.014Z,5.20
2017-12-31T02:42:24.464Z,3.20
2017-12-31T02:44:51.914Z,5.60
2017-12-31T02:47:19.395Z,4.07
2017-12-31T02:49:46.849Z,3.87
2017-12-31T02:52:14.306Z,4.97
2017-12-31T02:54:41.755Z,6.03
2017-12-31T02:57:09.212Z,6.27
2017-12-31T02:59:36.673Z,4.20
2017-12-31T03:02:04.153Z,8.30
2017-12-31T03:04:31.600Z,5.23
2017-12-31T03:06:59.062Z,5.23
2017-12-31T03:09:26.538Z,5.00
2017-12-31T03:11:53.988Z,9.23
2017-12-31T03:14:21.480Z,4.43
2017-12-31T03:16:48.937Z,5.70
2017-12-31T03:19:16.480Z,4.10
2017-12-31T03:21:43.940Z,5.73
2017-12-31T03:24:11.461Z,6.33
2017-12-31T03:26:38.899Z,5.77
2017-12-31T03:29:06.491Z,6.20
2017-12-31T03:31:34.074Z,5.43
2017-12-31T03:34:01.530Z,8.87
2017-12-31T03:36:29.040Z,4.40
2017-12-31T03:38:56.505Z,5.47
2017-12-31T03:41:23.953Z,6.20
2017-12-31T03:43:51.416Z,5.23
2017-12-31T03:46:18.870Z,6.43
2017-12-31T03:48:46.338Z,3.63
2017-12-31T03:51:13.782Z,4.37
2017-12-31T03:53:41.239Z,5.27
2017-12-31T03:56:08.695Z,6.90
2017-12-31T03:58:36.143Z,6.43
2017-12-31T04:01:03.597Z,5.33
2017-12-31T04:03:31.061Z,4.60
2017-12-31T04:05:58.514Z,7.03
2017-12-31T04:08:25.970Z,5.13
2017-12-31T04:10:53.431Z,3.63
2017-12-31T04:13:20.886Z,6.13
2017-12-31T04:15:48.421Z,5.67
2017-12-31T04:18:15.924Z,4.30
2017-12-31T04:20:43.373Z,5.87
2017-12-31T04:23:10.840Z,4.00
2017-12-31T04:25:38.295Z,4.40
2017-12-31T04:28:05.752Z,8.63
2017-12-31T04:30:33.215Z,5.73
2017-12-31T04:33:00.652Z,6.30
2017-12-31T04:35:28.113Z,7.13
2017-12-31T04:37:55.576Z,8.37
2017-12-31T04:40:23.028Z,4.30
2017-12-31T04:42:50.476Z,5.47
2017-12-31T04:45:17.937Z,7.90
2017-12-31T04:47:45.409Z,5.20
2017-12-31T04:50:12.865Z,4.67
2017-12-31T04:52:40.319Z,8.00
2017-12-31T04:55:07.816Z,6.77
2017-12-31T04:57:35.224Z,4.83
2017-12-31T05:00:02.708Z,7.30
2017-12-31T05:02:30.165Z,3.90
2017-12-31T05:04:57.632Z,4.63
2017-12-31T05:07:25.080Z,6.53
2017-12-31T05:09:52.538Z,7.50
2017-12-31T05:12:19.996Z,4.47
2017-12-31T05:14:47.465Z,2.80
2017-12-31T05:17:14.913Z,7.72
2017-12-31T05:19:42.385Z,9.33
2017-12-31T05:22:09.836Z,6.23
2017-12-31T05:24:37.292Z,6.37
2017-12-31T05:27:04.744Z,8.97
2017-12-31T05:29:32.206Z,5.17
2017-12-31T05:31:59.827Z,5.37
2017-12-31T05:34:27.289Z,6.40
2017-12-31T05:36:54.750Z,6.13
2017-12-31T05:39:22.218Z,10.27
2017-12-31T05:41:49.707Z,5.87
2017-12-31T05:44:17.151Z,6.00
2017-12-31T05:46:44.642Z,5.73
2017-12-31T05:49:12.148Z,5.53
2017-12-31T05:51:39.635Z,8.93
2017-12-31T05:54:07.087Z,8.73
2017-12-31T05:56:34.543Z,11.33
2017-12-31T05:59:02.180Z,7.67
2017-12-31T06:01:30.408Z,8.40
2017-12-31T06:03:57.868Z,15.47
2017-12-31T06:06:25.362Z,7.43
2017-12-31T06:08:52.809Z,9.00
2017-12-31T06:11:20.661Z,9.40
2017-12-31T06:13:48.893Z,12.33
2017-12-31T06:16:16.357Z,12.10
2017-12-31T06:18:43.841Z,7.30
2017-12-31T06:21:11.285Z,9.10
2017-12-31T06:23:38.940Z,7.23
2017-12-31T06:26:06.420Z,5.63
2017-12-31T06:28:33.976Z,7.23
2017-12-31T06:31:01.424Z,9.37
2017-12-31T06:33:28.904Z,7.03
2017-12-31T06:35:56.356Z,6.47
2017-12-31T06:38:23.844Z,10.53
2017-12-31T06:40:51.412Z,5.57
2017-12-31T06:43:18.859Z,7.77
2017-12-31T06:45:46.321Z,10.60
2017-12-31T06:48:13.764Z,8.97
2017-12-31T06:50:41.980Z,6.23
2017-12-31T06:53:09.439Z,7.17
2017-12-31T06:55:36.944Z,5.20
2017-12-31T06:58:04.398Z,4.17
2017-12-31T07:00:31.849Z,7.97
2017-12-31T07:02:59.597Z,6.43
2017-12-31T07:05:27.052Z,4.90
2017-12-31T07:07:54.537Z,5.23
2017-12-31T07:10:21.997Z,10.03
2017-12-31T07:12:49.476Z,8.53
2017-12-31T07:15:16.922Z,5.23
2017-12-31T07:17:44.377Z,7.47
2017-12-31T07:20:11.877Z,4.80
2017-12-31T07:22:39.476Z,6.13
2017-12-31T07:25:06.931Z,6.43
2017-12-31T07:27:34.401Z,8.93
2017-12-31T07:30:01.872Z,6.47
2017-12-31T07:32:29.321Z,7.90
2017-12-31T07:34:56.777Z,4.23
2017-12-31T07:37:25.015Z,7.03
2017-12-31T07:39:52.504Z,4.67
2017-12-31T07:42:19.958Z,5.17
2017-12-31T07:44:47.413Z,3.97
2017-12-31T07:47:14.897Z,4.80
2017-12-31T07:49:43.133Z,6.83
2017-12-31T07:52:10.593Z,2.47
2017-12-31T07:54:38.068Z,5.87
2017-12-31T07:57:05.524Z,6.80
2017-12-31T07:59:32.986Z,6.83
2017-12-31T08:02:00.444Z,4.93
2017-12-31T08:04:27.914Z,6.97
2017-12-31T08:06:55.372Z,4.47
2017-12-31T08:09:22.841Z,5.03
2017-12-31T08:11:50.288Z,7.37
2017-12-31T08:14:17.739Z,6.53
2017-12-31T08:16:45.204Z,6.37
2017-12-31T08:19:12.841Z,6.83
2017-12-31T08:21:40.334Z,4.73
2017-12-31T08:24:07.776Z,6.87
2017-12-31T08:26:35.249Z,5.23
2017-12-31T08:29:02.692Z,4.93
2017-12-31T08:31:30.162Z,3.07
2017-12-31T08:33:57.606Z,5.70
2017-12-31T08:36:25.128Z,3.00
2017-12-31T08:38:52.588Z,5.13
2017-12-31T08:41:20.049Z,6.90
2017-12-31T08:43:47.505Z,4.00
2017-12-31T08:46:14.960Z,7.73
2017-12-31T08:48:42.420Z,15.20
2017-12-31T08:51:10.082Z,13.20
2017-12-31T08:53:37.540Z,9.90
2017-12-31T08:56:05.062Z,10.90
2017-12-31T08:58:32.516Z,11.63
2017-12-31T09:00:59.992Z,13.20
2017-12-31T09:03:27.442Z,17.60
2017-12-31T09:05:54.908Z,17.27
2017-12-31T09:08:22.358Z,16.60
2017-12-31T09:10:49.816Z,24.07
2017-12-31T09:13:17.284Z,48.03
2017-12-31T09:15:44.732Z,28.93
2017-12-31T09:18:12.194Z,20.10
2017-12-31T09:20:39.648Z,26.27
2017-12-31T09:23:07.105Z,22.50
2017-12-31T09:25:34.557Z,19.20
2017-12-31T09:28:02.016Z,19.90
2017-12-31T09:30:29.470Z,20.43
2017-12-31T09:32:56.934Z,20.10
2017-12-31T09:35:24.395Z,22.63
2017-12-31T09:37:51.849Z,18.67
2017-12-31T09:40:19.304Z,18.13
2017-12-31T09:42:46.759Z,15.90
2017-12-31T09:45:14.216Z,15.53
2017-12-31T09:47:41.680Z,18.30
2017-12-31T09:50:09.130Z,18.67
2017-12-31T09:52:36.602Z,18.67
2017-12-31T09:55:04.269Z,25.17
2017-12-31T09:57:31.727Z,19.40
2017-12-31T09:59:59.239Z,20.60
2017-12-31T10:02:26.709Z,16.93
2017-12-31T10:04:54.165Z,25.23
2017-12-31T10:07:21.617Z,17.23
2017-12-31T10:09:49.162Z,14.77
2017-12-31T10:12:16.610Z,20.73
2017-12-31T10:14:44.082Z,20.27
2017-12-31T10:17:11.536Z,14.93
2017-12-31T10:19:39.004Z,19.50
2017-12-31T10:22:06.448Z,27.13
2017-12-31T10:24:34.006Z,17.47
2017-12-31T10:27:02.405Z,22.13
2017-12-31T10:29:29.863Z,17.17
2017-12-31T10:31:57.320Z,13.13
2017-12-31T10:34:24.792Z,16.07
2017-12-31T10:36:53.092Z,6.03
2017-12-31T10:39:20.564Z,10.70
2017-12-31T10:41:48.177Z,8.80
2017-12-31T10:44:15.640Z,10.60
2017-12-31T10:46:43.133Z,7.33
2017-12-31T10:49:10.603Z,7.40
2017-12-31T10:51:38.093Z,6.27
2017-12-31T10:54:05.554Z,8.53
2017-12-31T10:56:32.996Z,4.60
2017-12-31T10:59:00.456Z,8.60
2017-12-31T11:01:27.905Z,6.70
2017-12-31T11:03:55.360Z,8.30
2017-12-31T11:06:22.813Z,8.33
2017-12-31T11:08:50.269Z,8.40
2017-12-31T11:11:17.713Z,8.50
2017-12-31T11:13:45.184Z,6.17
2017-12-31T11:16:12.701Z,4.63
2017-12-31T11:18:40.137Z,4.43
2017-12-31T11:21:07.612Z,6.27
2017-12-31T11:23:35.053Z,6.97
2017-12-31T11:26:02.582Z,7.10
2017-12-31T11:28:30.040Z,4.63
2017-12-31T11:30:57.492Z,3.90
2017-12-31T11:33:24.940Z,3.43
2017-12-31T11:35:52.564Z,5.27
2017-12-31T11:38:20.022Z,6.83
2017-12-31T11:40:47.514Z,4.90
2017-12-31T11:43:15.009Z,6.80
2017-12-31T11:45:42.470Z,5.00
2017-12-31T11:48:09.965Z,6.37
2017-12-31T11:50:37.417Z,7.00
2017-12-31T11:53:04.898Z,14.00
2017-12-31T11:55:32.360Z,24.93
2017-12-31T11:57:59.845Z,30.93
2017-12-31T12:00:27.287Z,29.53
2017-12-31T12:02:54.742Z,30.23
2017-12-31T12:05:22.208Z,31.63
2017-12-31T12:07:49.669Z,26.90
2017-12-31T12:10:17.120Z,26.93
2017-12-31T12:12:44.581Z,22.03
2017-12-31T12:15:12.068Z,18.47
2017-12-31T12:17:39.569Z,25.50
2017-12-31T12:20:07.784Z,19.73
2017-12-31T12:22:35.260Z,18.57
2017-12-31T12:25:02.719Z,24.50
2017-12-31T12:27:30.178Z,17.17
2017-12-31T12:29:57.629Z,28.00
2017-12-31T12:32:25.101Z,27.60
2017-12-31T12:34:52.561Z,27.00
2017-12-31T12:37:20.032Z,28.13
2017-12-31T12:39:47.476Z,23.07
2017-12-31T12:42:14.942Z,18.97
2017-12-31T12:44:42.392Z,28.63
2017-12-31T12:47:09.860Z,13.40
2017-12-31T12:49:37.512Z,12.00
2017-12-31T12:52:04.946Z,15.87
2017-12-31T12:54:32.409Z,14.17
2017-12-31T12:56:59.883Z,14.67
2017-12-31T12:59:27.329Z,12.23
2017-12-31T13:01:55.848Z,20.40
2017-12-31T13:04:23.308Z,12.97
2017-12-31T13:06:50.768Z,11.03
2017-12-31T13:09:18.216Z,12.73
2017-12-31T13:11:45.673Z,12.23
2017-12-31T13:14:13.126Z,15.97
2017-12-31T13:16:40.626Z,20.63
2017-12-31T13:19:08.078Z,17.53
2017-12-31T13:21:35.539Z,16.73
2017-12-31T13:24:03.205Z,24.90
2017-12-31T13:26:42.581Z,13.77
2017-12-31T13:29:10.385Z,16.63
2017-12-31T13:31:38.818Z,18.07
2017-12-31T13:34:06.409Z,8.70
2017-12-31T13:36:34.072Z,11.43
2017-12-31T13:39:01.829Z,9.03
2017-12-31T13:41:29.305Z,13.27
2017-12-31T13:43:56.765Z,11.23
2017-12-31T13:46:24.234Z,10.03
2017-12-31T13:48:51.698Z,10.40
2017-12-31T13:51:19.144Z,9.80
2017-12-31T13:53:46.605Z,10.47
2017-12-31T13:56:14.056Z,18.13
2017-12-31T13:58:41.546Z,11.73
2017-12-31T14:01:09.002Z,28.53
2017-12-31T14:03:37.248Z,23.47
2017-12-31T14:06:04.706Z,13.40
2017-12-31T14:08:32.172Z,19.63
2017-12-31T14:10:59.672Z,11.53
2017-12-31T14:13:27.085Z,19.13
2017-12-31T14:15:54.899Z,11.63
2017-12-31T14:18:22.408Z,29.20
2017-12-31T14:20:49.983Z,17.80
2017-12-31T14:23:17.809Z,13.03
2017-12-31T14:25:45.618Z,10.93
2017-12-31T14:28:13.142Z,14.30
2017-12-31T14:30:40.909Z,12.13
2017-12-31T14:33:08.749Z,12.00
2017-12-31T14:35:36.758Z,14.40
2017-12-31T14:38:06.881Z,11.93
2017-12-31T14:40:35.321Z,13.80
2017-12-31T14:43:02.997Z,9.13
2017-12-31T14:45:30.565Z,12.87
2017-12-31T14:47:58.270Z,13.63
2017-12-31T14:50:25.922Z,14.23
2017-12-31T14:52:53.426Z,13.13
2017-12-31T14:55:20.972Z,14.57
2017-12-31T14:57:48.433Z,13.23
2017-12-31T15:00:15.912Z,13.43
2017-12-31T15:02:43.536Z,9.07
2017-12-31T15:05:11.025Z,15.27
2017-12-31T15:07:38.636Z,9.00
2017-12-31T15:10:06.240Z,10.27
2017-12-31T15:12:33.712Z,14.33
2017-12-31T15:15:01.392Z,11.07
2017-12-31T15:17:28.846Z,15.93
2017-12-31T15:19:56.686Z,9.87
2017-12-31T15:22:24.347Z,10.20
2017-12-31T15:24:51.905Z,11.03
2017-12-31T15:27:19.693Z,14.17
2017-12-31T15:29:47.740Z,12.33
2017-12-31T15:32:15.682Z,17.20
2017-12-31T15:34:43.124Z,9.00
2017-12-31T15:37:10.598Z,10.47
2017-12-31T15:39:38.670Z,7.67
2017-12-31T15:42:06.210Z,8.33
2017-12-31T15:44:33.675Z,10.17
2017-12-31T15:47:01.184Z,15.00
2017-12-31T15:49:29.318Z,14.00
2017-12-31T15:51:56.824Z,16.83
2017-12-31T15:54:25.507Z,15.33
2017-12-31T15:56:53.235Z,17.80
2017-12-31T15:59:20.683Z,12.17
2017-12-31T16:01:48.905Z,16.30
2017-12-31T16:04:16.464Z,11.07
2017-12-31T16:06:43.925Z,20.90
2017-12-31T16:09:13.236Z,12.43
2017-12-31T16:11:42.060Z,12.70
2017-12-31T16:14:10.416Z,18.93
2017-12-31T16:16:38.026Z,11.93
2017-12-31T16:19:05.489Z,13.20
2017-12-31T16:21:32.968Z,15.47
2017-12-31T16:24:00.428Z,9.53
2017-12-31T16:26:27.949Z,15.13
2017-12-31T16:28:55.407Z,14.83
2017-12-31T16:31:22.869Z,12.27
2017-12-31T16:33:50.345Z,11.73
2017-12-31T16:36:18.024Z,11.20
2017-12-31T16:38:45.485Z,13.30
2017-12-31T16:41:12.960Z,10.97
2017-12-31T16:43:40.970Z,10.73
2017-12-31T16:46:08.469Z,7.83
2017-12-31T16:48:35.999Z,12.70
2017-12-31T16:51:03.445Z,8.63
2017-12-31T16:53:30.948Z,8.43
2017-12-31T16:55:58.557Z,13.30
2017-12-31T16:58:26.788Z,9.67
2017-12-31T17:00:54.286Z,11.33
2017-12-31T17:03:22.584Z,9.50
2017-12-31T17:05:50.068Z,13.17
2017-12-31T17:08:17.532Z,10.47
2017-12-31T17:10:45.078Z,15.70
2017-12-31T17:13:12.544Z,14.13
2017-12-31T17:15:39.992Z,15.57
2017-12-31T17:18:07.456Z,21.57
2017-12-31T17:20:34.908Z,17.17
2017-12-31T17:23:02.376Z,16.73
2017-12-31T17:25:29.979Z,15.23
2017-12-31T17:27:57.472Z,15.20
2017-12-31T17:30:24.917Z,13.17
2017-12-31T17:32:52.372Z,14.07
2017-12-31T17:35:19.845Z,13.90
2017-12-31T17:37:47.300Z,13.27
2017-12-31T17:40:14.762Z,12.67
2017-12-31T17:42:42.215Z,13.53
2017-12-31T17:45:09.685Z,8.93
2017-12-31T17:47:37.192Z,14.37
2017-12-31T17:50:04.617Z,13.47
2017-12-31T17:52:32.078Z,9.93
2017-12-31T17:54:59.746Z,9.67
2017-12-31T17:57:27.312Z,11.77
2017-12-31T17:59:54.784Z,12.37
2017-12-31T18:02:22.437Z,21.63
2017-12-31T18:04:50.013Z,16.13
2017-12-31T18:07:17.506Z,17.23
2017-12-31T18:09:45.009Z,20.23
2017-12-31T18:12:12.577Z,18.93
2017-12-31T18:14:40.181Z,17.77
2017-12-31T18:17:07.657Z,24.70
2017-12-31T18:19:35.120Z,42.00
2017-12-31T18:22:02.841Z,51.20
2017-12-31T18:24:30.319Z,29.17
2017-12-31T18:26:57.920Z,26.80
2017-12-31T18:29:25.384Z,35.33
2017-12-31T18:31:52.842Z,36.93
2017-12-31T18:34:20.462Z,26.07
2017-12-31T18:36:47.916Z,26.07
2017-12-31T18:39:15.525Z,26.53
2017-12-31T18:41:43.082Z,25.57
2017-12-31T18:44:10.537Z,22.93
2017-12-31T18:46:38.010Z,24.73
2017-12-31T18:49:05.477Z,28.93
2017-12-31T18:51:32.947Z,23.77
2017-12-31T18:54:00.412Z,30.33
2017-12-31T18:56:27.885Z,22.77
2017-12-31T18:58:55.347Z,20.87
2017-12-31T19:01:22.812Z,21.33
2017-12-31T19:03:50.269Z,19.37
2017-12-31T19:06:17.741Z,19.77
2017-12-31T19:08:45.201Z,24.17
2017-12-31T19:11:12.673Z,19.87
2017-12-31T19:13:40.133Z,22.77
2017-12-31T19:16:07.615Z,16.87
2017-12-31T19:18:35.076Z,21.43
2017-12-31T19:21:02.552Z,22.63
2017-12-31T19:23:30.010Z,17.73
2017-12-31T19:25:57.475Z,22.10
2017-12-31T19:28:24.945Z,49.43
2017-12-31T19:30:53.184Z,55.67
2017-12-31T19:33:20.641Z,72.13
2017-12-31T19:35:48.106Z,70.13
2017-12-31T19:38:15.583Z,71.70
2017-12-31T19:40:43.043Z,65.03
2017-12-31T19:43:10.501Z,65.10
2017-12-31T19:45:37.961Z,59.67
2017-12-31T19:48:05.428Z,64.33
2017-12-31T19:50:32.934Z,62.90
2017-12-31T19:53:00.405Z,51.03
2017-12-31T19:55:27.860Z,56.10
2017-12-31T19:57:55.334Z,54.30
2017-12-31T20:00:22.788Z,51.67
2017-12-31T20:02:50.262Z,53.27
2017-12-31T20:05:17.724Z,58.40
2017-12-31T20:07:45.205Z,47.60
2017-12-31T20:10:13.423Z,50.30
2017-12-31T20:12:40.888Z,52.53
2017-12-31T20:15:08.345Z,54.37
2017-12-31T20:17:35.810Z,49.87
2017-12-31T20:20:03.261Z,52.50
2017-12-31T20:22:30.736Z,50.03
2017-12-31T20:24:58.188Z,49.90
2017-12-31T20:29:17.905Z,31.70
2017-12-31T20:31:46.151Z,33.23
2017-12-31T20:34:13.605Z,39.27
2017-12-31T20:36:41.068Z,34.37
2017-12-31T20:39:08.536Z,36.23
2017-12-31T20:41:35.998Z,34.87
2017-12-31T20:44:03.479Z,38.83
2017-12-31T20:46:30.930Z,28.43
2017-12-31T20:48:58.509Z,29.93
2017-12-31T20:51:25.982Z,28.87
2017-12-31T20:53:53.462Z,28.77
2017-12-31T20:56:20.920Z,47.20
2017-12-31T20:58:48.392Z,46.77
2017-12-31T21:01:15.853Z,45.00
2017-12-31T21:03:43.315Z,41.53
2017-12-31T21:06:10.768Z,35.13
2017-12-31T21:08:38.232Z,30.93
2017-12-31T21:11:05.693Z,36.07
2017-12-31T21:13:33.184Z,37.13
2017-12-31T21:16:00.645Z,35.13
2017-12-31T21:18:28.105Z,39.73
2017-12-31T21:20:55.569Z,38.20
2017-12-31T21:23:23.042Z,26.00
2017-12-31T21:25:50.515Z,27.57
2017-12-31T21:28:17.993Z,37.07
2017-12-31T21:30:45.458Z,47.60
2017-12-31T21:33:12.912Z,50.73
2017-12-31T21:35:40.371Z,50.17
2017-12-31T21:38:07.849Z,52.80
2017-12-31T21:40:36.033Z,44.13
2017-12-31T21:43:04.257Z,49.23
2017-12-31T21:45:31.769Z,46.13
2017-12-31T21:47:59.224Z,58.33
2017-12-31T21:50:26.693Z,38.93
2017-12-31T21:52:54.150Z,42.77
2017-12-31T21:55:21.612Z,37.17
2017-12-31T21:57:49.074Z,38.20
2017-12-31T22:00:16.533Z,31.73
2017-12-31T22:02:44.001Z,29.80
2017-12-31T22:05:11.466Z,78.80
2017-12-31T22:07:38.910Z,52.80
2017-12-31T22:10:06.369Z,51.47
2017-12-31T22:12:33.823Z,47.27
2017-12-31T22:15:01.458Z,30.23
2017-12-31T22:17:28.917Z,107.37
2017-12-31T22:19:59.427Z,77.13
2017-12-31T22:22:26.920Z,33.53
2017-12-31T22:24:54.383Z,23.20
2017-12-31T22:27:21.850Z,21.57
2017-12-31T22:29:49.357Z,24.97
2017-12-31T22:32:16.910Z,24.57
2017-12-31T22:34:44.390Z,30.70
2017-12-31T22:37:11.856Z,51.57
2017-12-31T22:39:39.329Z,46.83
2017-12-31T22:42:07.552Z,48.23
2017-12-31T23:36:58.389Z,478.97
2017-12-31T23:39:25.840Z,480.10
2017-12-31T23:41:53.320Z,395.77
2017-12-31T23:44:20.785Z,393.33
2017-12-31T23:46:48.269Z,353.13
2017-12-31T23:49:15.753Z,342.67
2017-12-31T23:51:43.258Z,251.20
2017-12-31T23:54:10.720Z,272.57
2017-12-31T23:56:38.181Z,213.37
